sensor_id;sensor_type;location;lat;lon;timestamp;pressure;altitude;pressure_sealevel;temperature;humidity
32733;BME280;11867;51.198;11.966;2023-03-04T00:00:13;101079.72;;;1.75;93.23
32733;BME280;11867;51.198;11.966;2023-03-04T00:01:15;101083.03;;;1.77;93.56
32733;BME280;11867;51.198;11.966;2023-03-04T00:02:17;101074.13;;;1.64;93.49
32733;BME280;11867;51.198;11.966;2023-03-04T00:03:19;101071.44;;;1.64;93.67
32733;BME280;11867;51.198;11.966;2023-03-04T00:04:21;101077.41;;;1.59;94.10
32733;BME280;11867;51.198;11.966;2023-03-04T00:05:23;101080.09;;;1.59;94.07
32733;BME280;11867;51.198;11.966;2023-03-04T00:06:27;101068.97;;;1.69;93.78
32733;BME280;11867;51.198;11.966;2023-03-04T00:07:29;101068.72;;;1.57;93.81
32733;BME280;11867;51.198;11.966;2023-03-04T00:08:32;101073.03;;;1.45;94.16
32733;BME280;11867;51.198;11.966;2023-03-04T00:09:33;101074.25;;;1.35;94.38
32733;BME280;11867;51.198;11.966;2023-03-04T00:10:36;101072.38;;;1.29;94.91
32733;BME280;11867;51.198;11.966;2023-03-04T00:11:37;101069.50;;;1.31;95.17
32733;BME280;11867;51.198;11.966;2023-03-04T00:12:41;101073.41;;;1.28;94.90
32733;BME280;11867;51.198;11.966;2023-03-04T00:13:42;101066.19;;;1.29;95.05
32733;BME280;11867;51.198;11.966;2023-03-04T00:14:45;101074.03;;;1.30;94.78
32733;BME280;11867;51.198;11.966;2023-03-04T00:15:47;101062.03;;;1.26;94.87
32733;BME280;11867;51.198;11.966;2023-03-04T00:16:50;101068.88;;;1.35;94.84
32733;BME280;11867;51.198;11.966;2023-03-04T00:17:51;101068.69;;;1.44;94.51
32733;BME280;11867;51.198;11.966;2023-03-04T00:18:54;101073.00;;;1.31;94.63
32733;BME280;11867;51.198;11.966;2023-03-04T00:19:56;101062.03;;;1.26;94.69
32733;BME280;11867;51.198;11.966;2023-03-04T00:20:59;101067.03;;;1.42;94.60
32733;BME280;11867;51.198;11.966;2023-03-04T00:22:00;101058.38;;;1.47;94.02
32733;BME280;11867;51.198;11.966;2023-03-04T00:23:03;101062.91;;;1.47;94.26
32733;BME280;11867;51.198;11.966;2023-03-04T00:24:05;101063.94;;;1.39;94.17
32733;BME280;11867;51.198;11.966;2023-03-04T00:25:08;101058.94;;;1.36;94.62
32733;BME280;11867;51.198;11.966;2023-03-04T00:26:09;101060.81;;;1.35;94.56
32733;BME280;11867;51.198;11.966;2023-03-04T00:27:13;101063.31;;;1.37;94.48
32733;BME280;11867;51.198;11.966;2023-03-04T00:28:16;101051.31;;;1.26;95.05
32733;BME280;11867;51.198;11.966;2023-03-04T00:29:18;101060.44;;;1.45;94.98
32733;BME280;11867;51.198;11.966;2023-03-04T00:30:20;101053.22;;;1.59;94.43
32733;BME280;11867;51.198;11.966;2023-03-04T00:31:23;101047.44;;;1.62;93.55
32733;BME280;11867;51.198;11.966;2023-03-04T00:32:24;101050.78;;;1.77;93.31
32733;BME280;11867;51.198;11.966;2023-03-04T00:33:27;101046.25;;;1.78;92.86
32733;BME280;11867;51.198;11.966;2023-03-04T00:34:28;101036.09;;;1.93;92.44
32733;BME280;11867;51.198;11.966;2023-03-04T00:35:33;101046.44;;;2.16;91.48
32733;BME280;11867;51.198;11.966;2023-03-04T00:36:34;101043.13;;;1.88;91.18
32733;BME280;11867;51.198;11.966;2023-03-04T00:37:37;101040.66;;;1.93;91.47
32733;BME280;11867;51.198;11.966;2023-03-04T00:38:38;101053.28;;;1.99;91.61
32733;BME280;11867;51.198;11.966;2023-03-04T00:39:41;101047.47;;;2.09;91.24
32733;BME280;11867;51.198;11.966;2023-03-04T00:40:42;101055.75;;;2.20;91.09
32733;BME280;11867;51.198;11.966;2023-03-04T00:41:45;101048.31;;;2.36;90.13
32733;BME280;11867;51.198;11.966;2023-03-04T00:42:46;101046.22;;;2.38;89.82
32733;BME280;11867;51.198;11.966;2023-03-04T00:43:51;101045.78;;;2.48;89.08
32733;BME280;11867;51.198;11.966;2023-03-04T00:44:53;101050.56;;;2.52;88.71
32733;BME280;11867;51.198;11.966;2023-03-04T00:45:55;101049.72;;;2.58;88.79
32733;BME280;11867;51.198;11.966;2023-03-04T00:46:57;101045.56;;;2.62;88.55
32733;BME280;11867;51.198;11.966;2023-03-04T00:47:59;101045.50;;;2.82;87.99
32733;BME280;11867;51.198;11.966;2023-03-04T00:49:01;101033.25;;;2.87;87.42
32733;BME280;11867;51.198;11.966;2023-03-04T00:50:04;101039.00;;;3.03;86.94
32733;BME280;11867;51.198;11.966;2023-03-04T00:51:06;101038.25;;;2.83;86.74
32733;BME280;11867;51.198;11.966;2023-03-04T00:52:08;101036.16;;;2.85;87.07
32733;BME280;11867;51.198;11.966;2023-03-04T00:53:10;101032.03;;;2.82;87.48
32733;BME280;11867;51.198;11.966;2023-03-04T00:54:13;101030.22;;;2.70;86.82
32733;BME280;11867;51.198;11.966;2023-03-04T00:55:15;101034.81;;;2.49;87.78
32733;BME280;11867;51.198;11.966;2023-03-04T00:56:17;101027.09;;;2.66;88.09
32733;BME280;11867;51.198;11.966;2023-03-04T00:57:19;101030.59;;;2.80;87.70
32733;BME280;11867;51.198;11.966;2023-03-04T00:58:21;101026.19;;;2.99;86.89
32733;BME280;11867;51.198;11.966;2023-03-04T00:59:24;101032.47;;;2.79;87.12
32733;BME280;11867;51.198;11.966;2023-03-04T01:00:27;101025.84;;;2.69;87.49
32733;BME280;11867;51.198;11.966;2023-03-04T01:01:29;101033.66;;;2.90;87.14
32733;BME280;11867;51.198;11.966;2023-03-04T01:02:31;101028.47;;;2.95;87.13
32733;BME280;11867;51.198;11.966;2023-03-04T01:03:33;101026.13;;;3.06;86.36
32733;BME280;11867;51.198;11.966;2023-03-04T01:04:36;101024.81;;;3.21;86.27
32733;BME280;11867;51.198;11.966;2023-03-04T01:05:37;101009.31;;;3.17;85.96
32733;BME280;11867;51.198;11.966;2023-03-04T01:06:40;101023.50;;;3.37;85.76
32733;BME280;11867;51.198;11.966;2023-03-04T01:07:42;101020.69;;;3.19;84.75
32733;BME280;11867;51.198;11.966;2023-03-04T01:08:44;101018.25;;;3.11;85.20
32733;BME280;11867;51.198;11.966;2023-03-04T01:09:47;101023.91;;;2.89;85.82
32733;BME280;11867;51.198;11.966;2023-03-04T01:10:48;101027.50;;;2.76;86.47
32733;BME280;11867;51.198;11.966;2023-03-04T01:11:51;101026.09;;;2.67;87.06
32733;BME280;11867;51.198;11.966;2023-03-04T01:12:53;101026.72;;;2.56;87.68
32733;BME280;11867;51.198;11.966;2023-03-04T01:13:55;101021.13;;;2.57;87.97
32733;BME280;11867;51.198;11.966;2023-03-04T01:14:58;101020.94;;;2.59;88.18
32733;BME280;11867;51.198;11.966;2023-03-04T01:16:01;101014.94;;;2.50;88.32
32733;BME280;11867;51.198;11.966;2023-03-04T01:17:03;101009.72;;;2.62;88.43
32733;BME280;11867;51.198;11.966;2023-03-04T01:18:06;101014.72;;;2.58;88.23
32733;BME280;11867;51.198;11.966;2023-03-04T01:19:08;101008.97;;;2.35;88.43
32733;BME280;11867;51.198;11.966;2023-03-04T01:20:12;101009.81;;;2.29;89.42
32733;BME280;11867;51.198;11.966;2023-03-04T01:21:13;101007.97;;;2.09;90.28
32733;BME280;11867;51.198;11.966;2023-03-04T01:22:16;101003.19;;;2.18;91.03
32733;BME280;11867;51.198;11.966;2023-03-04T01:23:19;101006.47;;;2.40;90.45
32733;BME280;11867;51.198;11.966;2023-03-04T01:24:21;101002.75;;;2.41;89.30
32733;BME280;11867;51.198;11.966;2023-03-04T01:25:23;101004.84;;;2.26;89.65
32733;BME280;11867;51.198;11.966;2023-03-04T01:26:25;100998.44;;;2.20;89.94
32733;BME280;11867;51.198;11.966;2023-03-04T01:27:27;100994.50;;;1.96;91.70
32733;BME280;11867;51.198;11.966;2023-03-04T01:28:30;100994.50;;;2.16;91.40
32733;BME280;11867;51.198;11.966;2023-03-04T01:29:35;100993.47;;;2.24;90.64
32733;BME280;11867;51.198;11.966;2023-03-04T01:30:40;100992.00;;;2.34;90.34
32733;BME280;11867;51.198;11.966;2023-03-04T01:31:41;100994.06;;;2.39;89.80
32733;BME280;11867;51.198;11.966;2023-03-04T01:32:44;100985.72;;;2.54;89.55
32733;BME280;11867;51.198;11.966;2023-03-04T01:33:45;100986.81;;;2.46;89.36
32733;BME280;11867;51.198;11.966;2023-03-04T01:34:48;100980.19;;;2.42;89.59
32733;BME280;11867;51.198;11.966;2023-03-04T01:35:49;100983.13;;;2.14;90.32
32733;BME280;11867;51.198;11.966;2023-03-04T01:36:52;100985.63;;;2.15;91.06
32733;BME280;11867;51.198;11.966;2023-03-04T01:37:53;100978.53;;;2.34;90.86
32733;BME280;11867;51.198;11.966;2023-03-04T01:38:56;100984.09;;;2.39;90.06
32733;BME280;11867;51.198;11.966;2023-03-04T01:39:58;100977.94;;;2.32;90.31
32733;BME280;11867;51.198;11.966;2023-03-04T01:41:00;100978.38;;;2.09;90.89
32733;BME280;11867;51.198;11.966;2023-03-04T01:42:02;100981.88;;;2.16;91.05
32733;BME280;11867;51.198;11.966;2023-03-04T01:43:06;100974.59;;;2.37;91.12
32733;BME280;11867;51.198;11.966;2023-03-04T01:44:08;100974.81;;;2.29;90.24
32733;BME280;11867;51.198;11.966;2023-03-04T01:45:13;100978.34;;;2.22;90.87
32733;BME280;11867;51.198;11.966;2023-03-04T01:46:17;100975.88;;;2.14;90.94
32733;BME280;11867;51.198;11.966;2023-03-04T01:47:23;100975.06;;;2.00;91.88
32733;BME280;11867;51.198;11.966;2023-03-04T01:48:29;100971.72;;;2.25;91.39
32733;BME280;11867;51.198;11.966;2023-03-04T01:49:34;100966.13;;;2.40;90.87
32733;BME280;11867;51.198;11.966;2023-03-04T01:50:35;100963.41;;;2.33;90.06
32733;BME280;11867;51.198;11.966;2023-03-04T01:51:38;100963.69;;;2.05;91.30
32733;BME280;11867;51.198;11.966;2023-03-04T01:52:40;100960.56;;;2.08;91.75
32733;BME280;11867;51.198;11.966;2023-03-04T01:53:46;100961.97;;;2.31;91.90
32733;BME280;11867;51.198;11.966;2023-03-04T01:54:48;100961.81;;;2.12;91.80
32733;BME280;11867;51.198;11.966;2023-03-04T01:55:51;100958.03;;;2.40;91.05
32733;BME280;11867;51.198;11.966;2023-03-04T01:56:54;100957.38;;;2.51;90.54
32733;BME280;11867;51.198;11.966;2023-03-04T01:57:57;100960.66;;;2.60;90.09
32733;BME280;11867;51.198;11.966;2023-03-04T01:59:07;100952.66;;;2.40;89.57
32733;BME280;11867;51.198;11.966;2023-03-04T02:00:17;100955.22;;;2.01;92.05
32733;BME280;11867;51.198;11.966;2023-03-04T02:01:20;100950.56;;;2.35;91.51
32733;BME280;11867;51.198;11.966;2023-03-04T02:02:22;100950.91;;;2.66;90.54
32733;BME280;11867;51.198;11.966;2023-03-04T02:03:24;100943.50;;;2.54;89.47
32733;BME280;11867;51.198;11.966;2023-03-04T02:04:28;100948.97;;;2.14;90.79
32733;BME280;11867;51.198;11.966;2023-03-04T02:05:31;100947.69;;;2.37;91.02
32733;BME280;11867;51.198;11.966;2023-03-04T02:06:35;100943.56;;;2.34;90.93
32733;BME280;11867;51.198;11.966;2023-03-04T02:07:38;100944.47;;;2.67;89.98
32733;BME280;11867;51.198;11.966;2023-03-04T02:08:40;100941.16;;;2.71;89.24
32733;BME280;11867;51.198;11.966;2023-03-04T02:09:42;100939.19;;;2.40;88.79
32733;BME280;11867;51.198;11.966;2023-03-04T02:10:44;100939.28;;;2.13;90.85
32733;BME280;11867;51.198;11.966;2023-03-04T02:11:48;100942.00;;;1.73;92.17
32733;BME280;11867;51.198;11.966;2023-03-04T02:12:51;100946.53;;;1.93;92.27
32733;BME280;11867;51.198;11.966;2023-03-04T02:13:54;100939.94;;;1.82;93.25
32733;BME280;11867;51.198;11.966;2023-03-04T02:14:55;100938.69;;;1.91;92.82
32733;BME280;11867;51.198;11.966;2023-03-04T02:15:58;100936.97;;;2.10;91.73
32733;BME280;11867;51.198;11.966;2023-03-04T02:17:01;100938.28;;;1.74;92.38
32733;BME280;11867;51.198;11.966;2023-03-04T02:18:09;100930.59;;;1.98;92.04
32733;BME280;11867;51.198;11.966;2023-03-04T02:19:19;100935.34;;;2.09;91.87
32733;BME280;11867;51.198;11.966;2023-03-04T02:20:38;100933.50;;;1.96;91.82
32733;BME280;11867;51.198;11.966;2023-03-04T02:21:43;100932.88;;;1.61;93.16
32733;BME280;11867;51.198;11.966;2023-03-04T02:22:53;100928.34;;;1.55;94.23
32733;BME280;11867;51.198;11.966;2023-03-04T02:24:04;100928.34;;;1.48;93.50
32733;BME280;11867;51.198;11.966;2023-03-04T02:25:15;100929.97;;;1.16;95.40
32733;BME280;11867;51.198;11.966;2023-03-04T02:26:21;100926.28;;;1.44;94.98
32733;BME280;11867;51.198;11.966;2023-03-04T02:27:24;100931.66;;;1.50;94.11
32733;BME280;11867;51.198;11.966;2023-03-04T02:28:26;100931.66;;;1.70;93.59
32733;BME280;11867;51.198;11.966;2023-03-04T02:29:28;100925.44;;;1.36;94.29
32733;BME280;11867;51.198;11.966;2023-03-04T02:30:30;100932.03;;;1.14;94.84
32733;BME280;11867;51.198;11.966;2023-03-04T02:31:34;100929.50;;;0.99;95.93
32733;BME280;11867;51.198;11.966;2023-03-04T02:32:36;100930.72;;;0.83;97.51
32733;BME280;11867;51.198;11.966;2023-03-04T02:33:39;100932.97;;;0.79;97.66
32733;BME280;11867;51.198;11.966;2023-03-04T02:34:46;100923.31;;;0.92;97.87
32733;BME280;11867;51.198;11.966;2023-03-04T02:35:50;100926.53;;;0.67;97.99
32733;BME280;11867;51.198;11.966;2023-03-04T02:36:52;100922.78;;;0.55;98.64
32733;BME280;11867;51.198;11.966;2023-03-04T02:37:55;100926.56;;;0.80;98.91
32733;BME280;11867;51.198;11.966;2023-03-04T02:39:02;100929.81;;;0.56;98.39
32733;BME280;11867;51.198;11.966;2023-03-04T02:40:08;100923.56;;;0.49;99.22
32733;BME280;11867;51.198;11.966;2023-03-04T02:41:17;100925.34;;;0.35;99.45
32733;BME280;11867;51.198;11.966;2023-03-04T02:42:22;100926.63;;;0.04;100.00
32733;BME280;11867;51.198;11.966;2023-03-04T02:43:24;100924.06;;;-0.11;100.00
32733;BME280;11867;51.198;11.966;2023-03-04T02:44:29;100921.19;;;-0.09;100.00
32733;BME280;11867;51.198;11.966;2023-03-04T02:45:35;100917.25;;;-0.13;100.00
32733;BME280;11867;51.198;11.966;2023-03-04T02:46:38;100918.22;;;-0.21;100.00
32733;BME280;11867;51.198;11.966;2023-03-04T02:47:39;100919.41;;;-0.30;100.00
32733;BME280;11867;51.198;11.966;2023-03-04T02:48:42;100923.16;;;-0.25;100.00
32733;BME280;11867;51.198;11.966;2023-03-04T02:49:44;100918.44;;;-0.23;100.00
32733;BME280;11867;51.198;11.966;2023-03-04T02:50:49;100918.47;;;-0.44;100.00
32733;BME280;11867;51.198;11.966;2023-03-04T02:51:52;100918.31;;;-0.36;100.00
32733;BME280;11867;51.198;11.966;2023-03-04T02:52:55;100905.69;;;-0.42;100.00
32733;BME280;11867;51.198;11.966;2023-03-04T02:53:56;100909.78;;;-0.46;100.00
32733;BME280;11867;51.198;11.966;2023-03-04T02:54:59;100909.19;;;-0.42;100.00
32733;BME280;11867;51.198;11.966;2023-03-04T02:56:01;100913.88;;;-0.50;100.00
32733;BME280;11867;51.198;11.966;2023-03-04T02:57:05;100906.09;;;-0.45;100.00
32733;BME280;11867;51.198;11.966;2023-03-04T02:58:08;100904.84;;;-0.49;100.00
32733;BME280;11867;51.198;11.966;2023-03-04T02:59:11;100906.91;;;-0.45;100.00
32733;BME280;11867;51.198;11.966;2023-03-04T03:00:13;100913.91;;;-0.44;100.00
32733;BME280;11867;51.198;11.966;2023-03-04T03:01:16;100908.50;;;-0.29;100.00
32733;BME280;11867;51.198;11.966;2023-03-04T03:02:17;100908.69;;;-0.30;100.00
32733;BME280;11867;51.198;11.966;2023-03-04T03:03:20;100894.97;;;-0.42;100.00
32733;BME280;11867;51.198;11.966;2023-03-04T03:04:22;100891.34;;;0.01;100.00
32733;BME280;11867;51.198;11.966;2023-03-04T03:05:29;100902.50;;;0.04;100.00
32733;BME280;11867;51.198;11.966;2023-03-04T03:06:31;100897.63;;;-0.21;100.00
32733;BME280;11867;51.198;11.966;2023-03-04T03:07:34;100899.66;;;-0.23;100.00
32733;BME280;11867;51.198;11.966;2023-03-04T03:08:35;100896.13;;;0.05;100.00
32733;BME280;11867;51.198;11.966;2023-03-04T03:09:38;100896.97;;;0.12;100.00
32733;BME280;11867;51.198;11.966;2023-03-04T03:10:39;100888.88;;;0.40;100.00
32733;BME280;11867;51.198;11.966;2023-03-04T03:11:42;100889.97;;;0.59;99.62
32733;BME280;11867;51.198;11.966;2023-03-04T03:12:43;100890.75;;;0.47;98.20
32733;BME280;11867;51.198;11.966;2023-03-04T03:13:47;100887.72;;;0.63;97.91
32733;BME280;11867;51.198;11.966;2023-03-04T03:14:49;100890.59;;;0.62;97.41
32733;BME280;11867;51.198;11.966;2023-03-04T03:15:51;100887.25;;;0.46;96.54
32733;BME280;11867;51.198;11.966;2023-03-04T03:16:53;100884.28;;;0.28;97.98
32733;BME280;11867;51.198;11.966;2023-03-04T03:17:56;100886.44;;;0.52;97.58
32733;BME280;11867;51.198;11.966;2023-03-04T03:18:57;100894.50;;;0.11;97.82
32733;BME280;11867;51.198;11.966;2023-03-04T03:20:00;100893.13;;;-0.13;99.80
32733;BME280;11867;51.198;11.966;2023-03-04T03:21:01;100895.31;;;-0.24;100.00
32733;BME280;11867;51.198;11.966;2023-03-04T03:22:04;100893.13;;;-0.13;100.00
32733;BME280;11867;51.198;11.966;2023-03-04T03:23:06;100885.91;;;0.29;100.00
32733;BME280;11867;51.198;11.966;2023-03-04T03:24:09;100890.72;;;0.40;99.17
32733;BME280;11867;51.198;11.966;2023-03-04T03:25:12;100886.28;;;0.67;98.02
32733;BME280;11867;51.198;11.966;2023-03-04T03:26:16;100888.81;;;0.89;96.03
32733;BME280;11867;51.198;11.966;2023-03-04T03:27:17;100887.59;;;0.91;94.63
32733;BME280;11867;51.198;11.966;2023-03-04T03:28:20;100888.41;;;0.98;93.77
32733;BME280;11867;51.198;11.966;2023-03-04T03:29:23;100886.19;;;1.22;93.18
32733;BME280;11867;51.198;11.966;2023-03-04T03:30:25;100887.44;;;1.39;92.04
32733;BME280;11867;51.198;11.966;2023-03-04T03:31:27;100888.84;;;1.49;91.41
32733;BME280;11867;51.198;11.966;2023-03-04T03:32:30;100886.38;;;1.40;91.01
32733;BME280;11867;51.198;11.966;2023-03-04T03:33:32;100894.88;;;1.57;90.69
32733;BME280;11867;51.198;11.966;2023-03-04T03:34:34;100893.84;;;1.52;89.87
32733;BME280;11867;51.198;11.966;2023-03-04T03:35:36;100890.72;;;1.55;89.42
32733;BME280;11867;51.198;11.966;2023-03-04T03:36:38;100896.72;;;1.64;89.03
32733;BME280;11867;51.198;11.966;2023-03-04T03:37:40;100894.84;;;1.51;89.14
32733;BME280;11867;51.198;11.966;2023-03-04T03:38:43;100894.84;;;1.51;89.55
32733;BME280;11867;51.198;11.966;2023-03-04T03:39:44;100894.66;;;1.66;89.54
32733;BME280;11867;51.198;11.966;2023-03-04T03:40:47;100896.91;;;1.82;88.87
32733;BME280;11867;51.198;11.966;2023-03-04T03:41:49;100903.91;;;1.90;88.33
32733;BME280;11867;51.198;11.966;2023-03-04T03:42:51;100895.66;;;1.91;88.20
32733;BME280;11867;51.198;11.966;2023-03-04T03:43:53;100898.78;;;1.68;88.52
32733;BME280;11867;51.198;11.966;2023-03-04T03:44:57;100897.53;;;1.71;88.73
32733;BME280;11867;51.198;11.966;2023-03-04T03:45:58;100900.00;;;1.79;88.83
32733;BME280;11867;51.198;11.966;2023-03-04T03:47:01;100891.09;;;1.85;88.73
32733;BME280;11867;51.198;11.966;2023-03-04T03:48:03;100902.66;;;2.06;88.11
32733;BME280;11867;51.198;11.966;2023-03-04T03:49:06;100901.41;;;2.08;87.78
32733;BME280;11867;51.198;11.966;2023-03-04T03:50:08;100908.47;;;1.96;87.93
32733;BME280;11867;51.198;11.966;2023-03-04T03:51:11;100905.13;;;2.07;87.56
32733;BME280;11867;51.198;11.966;2023-03-04T03:52:12;100909.66;;;2.20;87.30
32733;BME280;11867;51.198;11.966;2023-03-04T03:53:15;100908.03;;;2.06;87.42
32733;BME280;11867;51.198;11.966;2023-03-04T03:54:16;100904.91;;;2.15;87.41
32733;BME280;11867;51.198;11.966;2023-03-04T03:55:19;100897.81;;;2.34;86.95
32733;BME280;11867;51.198;11.966;2023-03-04T03:56:21;100896.56;;;2.37;86.65
32733;BME280;11867;51.198;11.966;2023-03-04T03:57:24;100899.06;;;2.32;86.66
32733;BME280;11867;51.198;11.966;2023-03-04T03:58:25;100892.19;;;2.42;86.83
32733;BME280;11867;51.198;11.966;2023-03-04T03:59:28;100898.84;;;2.33;86.57
32733;BME280;11867;51.198;11.966;2023-03-04T04:00:31;100908.19;;;2.24;86.92
32733;BME280;11867;51.198;11.966;2023-03-04T04:01:33;100904.44;;;2.32;86.77
32733;BME280;11867;51.198;11.966;2023-03-04T04:02:35;100901.34;;;2.28;86.75
32733;BME280;11867;51.198;11.966;2023-03-04T04:03:38;100909.91;;;2.05;87.25
32733;BME280;11867;51.198;11.966;2023-03-04T04:04:40;100898.78;;;1.75;88.72
32733;BME280;11867;51.198;11.966;2023-03-04T04:05:42;100906.63;;;1.76;89.24
32733;BME280;11867;51.198;11.966;2023-03-04T04:06:44;100900.81;;;1.99;89.38
32733;BME280;11867;51.198;11.966;2023-03-04T04:07:46;100910.88;;;2.24;88.43
32733;BME280;11867;51.198;11.966;2023-03-04T04:08:48;100908.16;;;2.31;88.14
32733;BME280;11867;51.198;11.966;2023-03-04T04:09:50;100909.59;;;2.33;87.94
32733;BME280;11867;51.198;11.966;2023-03-04T04:10:52;100905.06;;;2.27;87.83
32733;BME280;11867;51.198;11.966;2023-03-04T04:11:55;100906.91;;;2.40;87.27
32733;BME280;11867;51.198;11.966;2023-03-04T04:13:03;100905.03;;;2.40;87.15
32733;BME280;11867;51.198;11.966;2023-03-04T04:14:05;100908.78;;;2.33;87.18
32733;BME280;11867;51.198;11.966;2023-03-04T04:15:09;100899.84;;;2.39;87.29
32733;BME280;11867;51.198;11.966;2023-03-04T04:16:13;100909.75;;;2.52;86.91
32733;BME280;11867;51.198;11.966;2023-03-04T04:17:15;100909.81;;;2.38;87.02
32733;BME280;11867;51.198;11.966;2023-03-04T04:18:17;100914.16;;;2.33;87.06
32733;BME280;11867;51.198;11.966;2023-03-04T04:19:19;100923.53;;;2.24;87.34
32733;BME280;11867;51.198;11.966;2023-03-04T04:20:22;100914.69;;;1.96;88.63
32733;BME280;11867;51.198;11.966;2023-03-04T04:21:26;100918.19;;;1.84;89.42
32733;BME280;11867;51.198;11.966;2023-03-04T04:22:28;100923.75;;;2.09;89.68
32733;BME280;11867;51.198;11.966;2023-03-04T04:23:30;100924.53;;;2.36;88.82
32733;BME280;11867;51.198;11.966;2023-03-04T04:24:33;100925.06;;;2.51;88.28
32733;BME280;11867;51.198;11.966;2023-03-04T04:25:34;100917.94;;;2.70;87.43
32733;BME280;11867;51.198;11.966;2023-03-04T04:26:37;100920.06;;;2.61;86.71
32733;BME280;11867;51.198;11.966;2023-03-04T04:27:38;100918.47;;;2.47;87.57
32733;BME280;11867;51.198;11.966;2023-03-04T04:28:41;100920.69;;;2.63;87.26
32733;BME280;11867;51.198;11.966;2023-03-04T04:29:42;100928.34;;;1.95;88.52
32733;BME280;11867;51.198;11.966;2023-03-04T04:30:45;100932.28;;;1.79;89.96
32733;BME280;11867;51.198;11.966;2023-03-04T04:31:48;100926.25;;;1.97;90.29
32733;BME280;11867;51.198;11.966;2023-03-04T04:32:50;100924.22;;;1.72;91.00
32733;BME280;11867;51.198;11.966;2023-03-04T04:33:52;100927.06;;;2.04;90.69
32733;BME280;11867;51.198;11.966;2023-03-04T04:34:54;100920.91;;;1.77;91.33
32733;BME280;11867;51.198;11.966;2023-03-04T04:35:56;100922.13;;;1.61;91.89
32733;BME280;11867;51.198;11.966;2023-03-04T04:36:58;100920.31;;;1.61;92.58
32733;BME280;11867;51.198;11.966;2023-03-04T04:38:01;100924.81;;;1.81;92.51
32733;BME280;11867;51.198;11.966;2023-03-04T04:39:03;100917.19;;;1.51;92.47
32733;BME280;11867;51.198;11.966;2023-03-04T04:40:06;100919.88;;;1.31;94.38
32733;BME280;11867;51.198;11.966;2023-03-04T04:41:17;100917.13;;;1.05;95.78
32733;BME280;11867;51.198;11.966;2023-03-04T04:42:20;100916.06;;;0.92;97.19
32733;BME280;11867;51.198;11.966;2023-03-04T04:43:22;100919.13;;;0.76;97.30
32733;BME280;11867;51.198;11.966;2023-03-04T04:44:24;100899.34;;;0.84;98.38
32733;BME280;11867;51.198;11.966;2023-03-04T04:45:26;100907.25;;;1.18;97.90
32733;BME280;11867;51.198;11.966;2023-03-04T04:46:28;100913.75;;;0.76;98.29
32733;BME280;11867;51.198;11.966;2023-03-04T04:47:31;100910.72;;;0.99;98.67
32733;BME280;11867;51.198;11.966;2023-03-04T04:48:34;100907.66;;;1.09;98.14
32733;BME280;11867;51.198;11.966;2023-03-04T04:49:35;100902.69;;;1.32;97.27
32733;BME280;11867;51.198;11.966;2023-03-04T04:50:38;100879.53;;;0.98;97.19
32733;BME280;11867;51.198;11.966;2023-03-04T04:51:39;100902.66;;;0.92;98.55
32733;BME280;11867;51.198;11.966;2023-03-04T04:52:42;100907.66;;;1.09;99.13
32733;BME280;11867;51.198;11.966;2023-03-04T04:53:43;100908.06;;;1.26;98.65
32733;BME280;11867;51.198;11.966;2023-03-04T04:54:46;100908.91;;;1.39;98.00
32733;BME280;11867;51.198;11.966;2023-03-04T04:55:47;100905.19;;;1.14;97.98
32733;BME280;11867;51.198;11.966;2023-03-04T04:56:50;100903.13;;;1.23;97.65
32733;BME280;11867;51.198;11.966;2023-03-04T04:57:51;100903.13;;;1.29;97.98
32733;BME280;11867;51.198;11.966;2023-03-04T04:58:56;100895.69;;;1.51;97.67
32733;BME280;11867;51.198;11.966;2023-03-04T04:59:59;100901.06;;;1.65;96.10
32733;BME280;11867;51.198;11.966;2023-03-04T05:01:01;100894.22;;;1.89;95.50
32733;BME280;11867;51.198;11.966;2023-03-04T05:02:03;100892.13;;;1.91;94.33
32733;BME280;11867;51.198;11.966;2023-03-04T05:03:06;100890.25;;;1.98;94.02
32733;BME280;11867;51.198;11.966;2023-03-04T05:04:09;100889.63;;;2.09;93.57
32733;BME280;11867;51.198;11.966;2023-03-04T05:05:10;100876.56;;;2.19;92.39
32733;BME280;11867;51.198;11.966;2023-03-04T05:06:13;100887.94;;;2.08;92.54
32733;BME280;11867;51.198;11.966;2023-03-04T05:07:14;100877.56;;;2.18;92.76
32733;BME280;11867;51.198;11.966;2023-03-04T05:08:17;100882.50;;;2.28;92.13
32733;BME280;11867;51.198;11.966;2023-03-04T05:09:19;100875.44;;;2.40;91.80
32733;BME280;11867;51.198;11.966;2023-03-04T05:10:23;100874.84;;;2.32;91.17
32733;BME280;11867;51.198;11.966;2023-03-04T05:11:25;100869.59;;;2.50;90.89
32733;BME280;11867;51.198;11.966;2023-03-04T05:12:27;100872.94;;;2.39;91.15
32733;BME280;11867;51.198;11.966;2023-03-04T05:13:29;100873.56;;;2.41;90.91
32733;BME280;11867;51.198;11.966;2023-03-04T05:14:31;100879.31;;;2.51;90.55
32733;BME280;11867;51.198;11.966;2023-03-04T05:15:33;100877.22;;;2.53;90.08
32733;BME280;11867;51.198;11.966;2023-03-04T05:16:35;100872.66;;;2.60;89.65
32733;BME280;11867;51.198;11.966;2023-03-04T05:17:37;100877.84;;;2.55;89.24
32733;BME280;11867;51.198;11.966;2023-03-04T05:18:41;100877.06;;;2.48;89.59
32733;BME280;11867;51.198;11.966;2023-03-04T05:19:42;100878.91;;;2.54;89.27
32733;BME280;11867;51.198;11.966;2023-03-04T05:20:49;100863.84;;;2.40;89.51
32733;BME280;11867;51.198;11.966;2023-03-04T05:21:50;100873.53;;;2.48;89.44
32733;BME280;11867;51.198;11.966;2023-03-04T05:22:53;100865.78;;;2.65;88.92
32733;BME280;11867;51.198;11.966;2023-03-04T05:23:55;100868.50;;;2.58;88.88
32733;BME280;11867;51.198;11.966;2023-03-04T05:24:57;100875.88;;;2.76;88.43
32733;BME280;11867;51.198;11.966;2023-03-04T05:25:59;100870.13;;;2.66;88.45
32733;BME280;11867;51.198;11.966;2023-03-04T05:27:01;100870.91;;;2.73;88.43